createdAt,value
2024-01-05T00:01:47.539Z,935.9
2024-01-05T00:06:53.918Z,935.9
2024-01-05T00:12:00.327Z,935.8
2024-01-05T00:17:06.750Z,935.8
2024-01-05T00:22:13.189Z,935.7
2024-01-05T00:27:19.563Z,935.7
2024-01-05T00:32:26.011Z,935.7
2024-01-05T00:37:32.397Z,935.7
2024-01-05T00:42:38.821Z,935.6
2024-01-05T00:47:45.242Z,935.6
2024-01-05T00:52:51.780Z,935.5
2024-01-05T00:57:57.372Z,935.5
2024-01-05T01:03:03.833Z,935.6
2024-01-05T01:08:10.296Z,935.6
2024-01-05T01:13:15.912Z,935.5
2024-01-05T01:18:21.379Z,935.4
2024-01-05T01:23:27.787Z,935.4
2024-01-05T01:28:34.203Z,935.4
2024-01-05T01:33:40.614Z,935.4
2024-01-05T01:38:47.027Z,935.3
2024-01-05T01:43:53.457Z,935.2
2024-01-05T01:48:59.857Z,935.1
2024-01-05T01:54:06.298Z,935.1
2024-01-05T01:59:12.687Z,935
2024-01-05T02:04:19.114Z,935
2024-01-05T02:09:25.519Z,934.9
2024-01-05T02:14:31.934Z,934.8
2024-01-05T02:19:38.340Z,934.7
2024-01-05T02:24:44.764Z,934.6
2024-01-05T02:29:51.178Z,934.6
2024-01-05T02:34:57.660Z,934.5
2024-01-05T02:40:04.002Z,934.4
2024-01-05T02:45:10.415Z,934.2
2024-01-05T02:50:16.928Z,934.2
2024-01-05T02:55:23.255Z,934.1
2024-01-05T03:00:29.666Z,934.1
2024-01-05T03:05:36.069Z,933.9
2024-01-05T03:10:42.499Z,933.8
2024-01-05T03:15:48.893Z,933.8
2024-01-05T03:20:55.325Z,933.7
2024-01-05T03:26:01.872Z,933.6
2024-01-05T03:31:07.452Z,933.5
2024-01-05T03:36:13.917Z,933.4
2024-01-05T03:41:20.382Z,933.2
2024-01-05T03:46:26.859Z,933.2
2024-01-05T03:51:33.317Z,933.2
2024-01-05T03:56:38.920Z,933.2
2024-01-05T04:01:44.499Z,933.2
2024-01-05T04:06:51.042Z,933.1
2024-01-05T04:11:56.458Z,933.1
2024-01-05T04:17:02.870Z,933
2024-01-05T04:22:09.280Z,932.9
2024-01-05T04:27:15.701Z,933
2024-01-05T04:32:22.099Z,933
2024-01-05T04:37:28.524Z,932.9
2024-01-05T04:42:34.931Z,932.9
2024-01-05T04:47:41.345Z,932.9
2024-01-05T04:52:47.851Z,932.9
2024-01-05T04:57:54.173Z,932.7
2024-01-05T05:03:00.583Z,932.8
2024-01-05T05:08:07.007Z,932.7
2024-01-05T05:13:13.418Z,932.7
2024-01-05T05:18:19.836Z,932.8
2024-01-05T05:23:26.246Z,932.8
2024-01-05T05:28:32.655Z,932.7
2024-01-05T05:33:39.079Z,932.8
2024-01-05T05:38:45.484Z,932.8
2024-01-05T05:43:51.895Z,932.9
2024-01-05T05:48:58.309Z,932.9
2024-01-05T05:54:04.720Z,932.9
2024-01-05T05:59:11.151Z,932.9
2024-01-05T06:04:17.564Z,932.9
2024-01-05T06:09:23.972Z,932.8
2024-01-05T06:14:30.386Z,932.8
2024-01-05T06:19:36.948Z,932.8
2024-01-05T06:24:42.523Z,932.8
2024-01-05T06:29:47.999Z,932.8
2024-01-05T06:34:54.405Z,932.9
2024-01-05T06:40:00.818Z,932.8
2024-01-05T06:45:07.231Z,932.7
2024-01-05T06:50:13.648Z,932.7
2024-01-05T06:55:20.050Z,932.5
2024-01-05T07:00:26.520Z,932.5
2024-01-05T07:05:32.734Z,932.5
2024-01-05T07:10:39.041Z,932.4
2024-01-05T07:15:45.347Z,932.4
2024-01-05T07:20:51.686Z,932.4
2024-01-05T07:25:57.987Z,932.3
2024-01-05T07:31:04.273Z,932.4
2024-01-05T07:36:10.595Z,932.4
2024-01-05T07:41:16.902Z,932.3
2024-01-05T07:46:23.206Z,932.2
2024-01-05T07:51:29.488Z,932.2
2024-01-05T07:56:35.869Z,932.2
2024-01-05T08:01:42.293Z,932.2
2024-01-05T08:06:48.412Z,932.2
2024-01-05T08:11:54.719Z,932.1
2024-01-05T08:17:01.170Z,932.2
2024-01-05T08:22:07.470Z,932.1
2024-01-05T08:27:13.628Z,932.1
2024-01-05T08:32:19.937Z,932.1
2024-01-05T08:37:26.440Z,932.1
2024-01-05T08:42:31.918Z,932
2024-01-05T08:47:38.382Z,932
2024-01-05T08:52:44.734Z,932.2
2024-01-05T08:57:50.229Z,932.2
2024-01-05T09:02:56.480Z,932.2
2024-01-05T09:08:02.774Z,932.2
2024-01-05T09:13:09.177Z,932.3
2024-01-05T09:18:15.438Z,932.4
2024-01-05T09:23:21.727Z,932.5
2024-01-05T09:28:28.040Z,932.5
2024-01-05T09:33:34.374Z,932.4
2024-01-05T09:38:40.611Z,932.5
2024-01-05T09:43:46.899Z,932.5
2024-01-05T09:48:53.225Z,932.5
2024-01-05T09:53:59.573Z,932.4
2024-01-05T09:59:05.898Z,932.4
2024-01-05T10:04:12.144Z,932.3
2024-01-05T10:09:18.467Z,932.3
2024-01-05T10:14:24.756Z,932.2
2024-01-05T10:19:31.090Z,932.3
2024-01-05T10:24:37.379Z,932.2
2024-01-05T10:29:43.912Z,932.3
2024-01-05T10:34:50.067Z,932
2024-01-05T10:39:56.361Z,931.9
2024-01-05T10:45:02.589Z,932.1
2024-01-05T10:50:09.001Z,932.1
2024-01-05T10:55:15.211Z,932.1
2024-01-05T11:00:21.501Z,932
2024-01-05T11:05:28.009Z,931.9
2024-01-05T11:10:33.380Z,931.8
2024-01-05T11:15:39.669Z,931.9
2024-01-05T11:20:46.041Z,931.8
2024-01-05T11:25:52.298Z,931.8
2024-01-05T11:30:58.625Z,931.8
2024-01-05T11:36:04.938Z,931.7
2024-01-05T11:41:11.256Z,931.8
2024-01-05T11:46:17.516Z,931.8
2024-01-05T11:51:23.851Z,931.7
2024-01-05T11:56:30.210Z,931.6
2024-01-05T12:01:36.512Z,931.4
2024-01-05T12:06:42.842Z,931.5
2024-01-05T12:11:49.112Z,931.4
2024-01-05T12:16:55.383Z,931.4
2024-01-05T12:22:01.710Z,931.4
2024-01-05T12:27:07.967Z,931.4
2024-01-05T12:32:14.279Z,931.3
2024-01-05T12:37:20.664Z,931.3
2024-01-05T12:42:27.176Z,931.4
2024-01-05T12:47:33.273Z,931.5
2024-01-05T12:52:39.599Z,931.4
2024-01-05T12:57:45.811Z,931.5
2024-01-05T13:02:52.112Z,931.5
2024-01-05T13:07:58.406Z,931.5
2024-01-05T13:13:04.720Z,931.6
2024-01-05T13:18:11.163Z,931.6
2024-01-05T13:23:16.584Z,931.5
2024-01-05T13:28:22.889Z,931.5
2024-01-05T13:33:29.194Z,931.5
2024-01-05T13:38:35.501Z,931.5
2024-01-05T13:43:41.990Z,931.6
2024-01-05T13:48:48.117Z,931.6
2024-01-05T13:53:54.526Z,931.6
2024-01-05T13:59:00.735Z,931.6
2024-01-05T14:04:07.050Z,931.6
2024-01-05T14:09:13.387Z,931.6
2024-01-05T14:14:19.649Z,931.6
2024-01-05T14:19:25.952Z,931.6
2024-01-05T14:24:32.256Z,931.5
2024-01-05T14:29:38.564Z,931.5
2024-01-05T14:34:44.868Z,931.6
2024-01-05T14:39:51.221Z,931.6
2024-01-05T14:44:57.477Z,931.6
2024-01-05T14:50:03.802Z,931.5
2024-01-05T14:55:10.094Z,931.5
2024-01-05T15:00:16.419Z,931.6
2024-01-05T15:05:22.717Z,931.7
2024-01-05T15:10:29.028Z,931.7
2024-01-05T15:15:35.337Z,931.6
2024-01-05T15:20:41.646Z,931.6
2024-01-05T15:25:47.936Z,931.7
2024-01-05T15:30:54.378Z,931.7
2024-01-05T15:35:59.930Z,931.6
2024-01-05T15:41:05.328Z,931.7
2024-01-05T15:46:11.664Z,931.9
2024-01-05T15:51:18.116Z,931.9
2024-01-05T15:56:24.350Z,931.8
2024-01-05T16:01:30.775Z,931.7
2024-01-05T16:06:37.216Z,931.8
2024-01-05T16:11:43.601Z,931.8
2024-01-05T16:16:50.043Z,931.9
2024-01-05T16:21:56.420Z,931.9
2024-01-05T16:27:02.932Z,931.9
2024-01-05T16:32:09.232Z,931.9
2024-01-05T16:37:15.649Z,932.1
2024-01-05T16:42:22.120Z,932.1
2024-01-05T16:47:28.483Z,932.1
2024-01-05T16:52:34.886Z,932.1
2024-01-05T16:57:41.310Z,932.1
2024-01-05T17:02:47.845Z,932.1
2024-01-05T17:07:54.138Z,932.1
2024-01-05T17:13:00.584Z,932.2
2024-01-05T17:18:06.984Z,932.2
2024-01-05T17:23:13.392Z,932.2
2024-01-05T17:28:19.807Z,932.3
2024-01-05T17:33:26.214Z,932.4
2024-01-05T17:38:32.633Z,932.4
2024-01-05T17:43:39.031Z,932.5
2024-01-05T17:48:45.592Z,932.6
2024-01-05T17:53:51.066Z,932.7
2024-01-05T17:58:57.483Z,932.7
2024-01-05T18:04:03.932Z,932.8
2024-01-05T18:09:10.300Z,932.8
2024-01-05T18:14:16.831Z,932.9
2024-01-05T18:19:23.172Z,932.9
2024-01-05T18:24:29.645Z,933
2024-01-05T18:29:36.353Z,933
2024-01-05T18:34:42.679Z,933
2024-01-05T18:39:49.134Z,933.1
2024-01-05T18:44:55.468Z,933.1
2024-01-05T18:50:01.841Z,933
2024-01-05T18:55:08.123Z,933
2024-01-05T19:00:14.733Z,933
2024-01-05T19:05:21.094Z,932.9
2024-01-05T19:10:27.582Z,932.9
2024-01-05T19:15:33.731Z,933
2024-01-05T19:20:40.376Z,933
2024-01-05T19:25:46.608Z,933
2024-01-05T19:30:53.271Z,933.1
2024-01-05T19:35:59.641Z,933.1
2024-01-05T19:41:05.756Z,933.1
2024-01-05T19:46:12.350Z,933.1
2024-01-05T19:51:18.598Z,933.1
2024-01-05T19:56:25.130Z,933.2
2024-01-05T20:01:31.847Z,933.2
2024-01-05T20:06:37.173Z,933.3
2024-01-05T20:11:43.499Z,933.3
2024-01-05T20:16:50.166Z,933.3
2024-01-05T20:21:56.540Z,933.3
2024-01-05T20:27:03.117Z,933.3
2024-01-05T20:32:09.439Z,933.3
2024-01-05T20:37:15.728Z,933.3
2024-01-05T20:42:22.181Z,933.3
2024-01-05T20:47:28.346Z,933.3
2024-01-05T20:52:34.763Z,933.4
2024-01-05T20:57:41.168Z,933.3
2024-01-05T21:02:47.579Z,933.3
2024-01-05T21:07:53.999Z,933.3
2024-01-05T21:13:00.576Z,933.4
2024-01-05T21:18:07.000Z,933.4
2024-01-05T21:23:13.515Z,933.4
2024-01-05T21:28:19.643Z,933.4
2024-01-05T21:33:26.070Z,933.5
2024-01-05T21:38:32.810Z,933.4
2024-01-05T21:43:39.216Z,933.4
2024-01-05T21:48:45.364Z,933.4
2024-01-05T21:53:51.721Z,933.4
2024-01-05T21:58:58.475Z,933.4
2024-01-05T22:04:04.911Z,933.5
2024-01-05T22:09:11.163Z,933.5
2024-01-05T22:14:17.520Z,933.5
2024-01-05T22:19:23.097Z,933.6
2024-01-05T22:24:28.580Z,933.6
2024-01-05T22:29:34.992Z,933.7
2024-01-05T22:34:41.399Z,933.7
2024-01-05T22:39:47.815Z,933.7
2024-01-05T22:44:54.222Z,933.7
2024-01-05T22:50:00.628Z,933.7
2024-01-05T22:55:07.043Z,933.7
2024-01-05T23:00:13.467Z,933.7
2024-01-05T23:05:19.878Z,933.8
2024-01-05T23:10:26.290Z,933.8
2024-01-05T23:15:32.707Z,933.8
2024-01-05T23:20:39.123Z,933.8
2024-01-05T23:25:45.522Z,933.9
2024-01-05T23:30:51.944Z,933.9
2024-01-05T23:35:58.360Z,933.9
2024-01-05T23:41:04.835Z,933.9
2024-01-05T23:46:11.198Z,933.8
2024-01-05T23:51:17.595Z,933.8
2024-01-05T23:56:24.019Z,933.8
